createdAt,value
2023-01-19T00:00:51.394Z,16.13
2023-01-19T00:03:18.425Z,12.77
2023-01-19T00:05:45.568Z,12.95
2023-01-19T00:08:15.453Z,9.20
2023-01-19T00:10:44.777Z,13.00
2023-01-19T00:13:11.777Z,12.52
2023-01-19T00:15:38.560Z,17.05
2023-01-19T00:18:05.700Z,15.88
2023-01-19T00:20:32.809Z,13.10
2023-01-19T00:22:59.964Z,14.52
2023-01-19T00:25:27.045Z,15.45
2023-01-19T00:27:53.999Z,12.45
2023-01-19T00:30:20.711Z,17.02
2023-01-19T00:32:47.423Z,16.23
2023-01-19T00:35:14.249Z,13.75
2023-01-19T00:37:41.011Z,11.57
2023-01-19T00:40:08.678Z,15.15
2023-01-19T00:42:41.064Z,12.02
2023-01-19T00:45:09.860Z,10.85
2023-01-19T00:47:36.627Z,15.73
2023-01-19T00:50:03.669Z,11.80
2023-01-19T00:52:30.382Z,13.50
2023-01-19T00:54:57.088Z,14.20
2023-01-19T00:57:23.856Z,12.30
2023-01-19T00:59:50.506Z,14.68
2023-01-19T01:02:17.474Z,14.02
2023-01-19T01:04:44.270Z,16.40
2023-01-19T01:07:10.980Z,16.33
2023-01-19T01:09:37.664Z,11.38
2023-01-19T01:12:04.708Z,13.52
2023-01-19T01:14:32.899Z,11.88
2023-01-19T01:17:00.547Z,12.55
2023-01-19T01:19:27.378Z,13.45
2023-01-19T01:21:55.403Z,13.27
2023-01-19T01:24:22.344Z,15.60
2023-01-19T01:26:48.996Z,11.02
2023-01-19T01:29:15.763Z,14.40
2023-01-19T01:31:42.468Z,13.25
2023-01-19T01:34:09.184Z,15.07
2023-01-19T01:36:36.057Z,7.72
2023-01-19T01:39:03.651Z,13.90
2023-01-19T01:41:30.570Z,13.35
2023-01-19T01:43:58.846Z,20.38
2023-01-19T01:46:27.116Z,12.88
2023-01-19T01:49:13.346Z,12.70
2023-01-19T01:51:47.026Z,11.63
2023-01-19T01:54:19.377Z,14.75
2023-01-19T01:56:52.431Z,11.88
2023-01-19T01:59:34.599Z,10.40
2023-01-19T02:02:34.459Z,9.82
2023-01-19T02:05:12.207Z,12.55
2023-01-19T02:08:05.318Z,10.55
2023-01-19T02:10:52.235Z,11.23
2023-01-19T02:13:22.982Z,19.48
2023-01-19T02:16:02.933Z,10.68
2023-01-19T02:18:31.347Z,14.73
2023-01-19T02:21:22.688Z,14.27
2023-01-19T02:23:54.542Z,11.00
2023-01-19T02:26:30.989Z,12.32
2023-01-19T02:29:02.949Z,13.43
2023-01-19T02:31:31.592Z,11.63
2023-01-19T02:34:00.538Z,13.77
2023-01-19T02:36:35.182Z,10.95
2023-01-19T02:39:04.527Z,10.30
2023-01-19T02:41:38.779Z,12.57
2023-01-19T02:44:08.285Z,17.77
2023-01-19T02:46:35.747Z,15.98
2023-01-19T02:49:02.641Z,14.60
2023-01-19T02:51:29.608Z,11.57
2023-01-19T02:54:17.283Z,10.23
2023-01-19T02:57:12.289Z,10.05
2023-01-19T03:00:03.212Z,13.18
2023-01-19T03:02:52.927Z,13.43
2023-01-19T03:05:48.410Z,10.20
2023-01-19T03:08:26.805Z,9.45
2023-01-19T03:11:06.204Z,10.85
2023-01-19T03:13:44.062Z,13.07
2023-01-19T03:16:24.954Z,14.80
2023-01-19T03:18:55.571Z,13.63
2023-01-19T03:21:26.599Z,12.93
2023-01-19T03:23:56.924Z,9.07
2023-01-19T03:26:29.726Z,13.90
2023-01-19T03:29:00.295Z,13.63
2023-01-19T03:31:31.983Z,14.70
2023-01-19T03:34:06.786Z,10.85
2023-01-19T03:36:42.709Z,16.45
2023-01-19T03:39:11.261Z,10.73
2023-01-19T03:41:39.655Z,14.30
2023-01-19T03:44:07.515Z,14.52
2023-01-19T03:46:34.667Z,16.38
2023-01-19T03:49:01.185Z,18.15
2023-01-19T03:51:27.830Z,10.65
2023-01-19T03:53:54.305Z,16.13
2023-01-19T03:56:25.385Z,11.20
2023-01-19T03:58:56.284Z,13.45
2023-01-19T04:01:25.030Z,13.30
2023-01-19T04:03:53.042Z,16.13
2023-01-19T04:06:20.557Z,14.68
2023-01-19T04:08:51.229Z,16.17
2023-01-19T04:11:17.875Z,13.18
2023-01-19T04:13:44.807Z,17.80
2023-01-19T04:16:12.289Z,15.13
2023-01-19T04:18:39.000Z,14.85
2023-01-19T04:21:07.488Z,13.80
2023-01-19T04:23:34.766Z,11.07
2023-01-19T04:26:03.856Z,14.80
2023-01-19T04:28:30.464Z,12.90
2023-01-19T04:30:57.223Z,15.00
2023-01-19T04:33:24.354Z,13.57
2023-01-19T04:35:54.417Z,16.13
2023-01-19T04:38:21.621Z,13.07
2023-01-19T04:40:52.769Z,11.57
2023-01-19T04:43:20.498Z,13.38
2023-01-19T04:45:47.588Z,15.50
2023-01-19T04:48:14.741Z,13.23
2023-01-19T04:50:41.929Z,12.55
2023-01-19T04:53:08.776Z,15.68
2023-01-19T04:55:37.246Z,12.52
2023-01-19T04:58:04.119Z,19.38
2023-01-19T05:00:31.333Z,17.42
2023-01-19T05:02:58.263Z,14.10
2023-01-19T05:05:25.080Z,14.30
2023-01-19T05:07:51.807Z,13.38
2023-01-19T05:10:20.198Z,15.00
2023-01-19T05:12:46.891Z,12.45
2023-01-19T05:15:13.649Z,13.95
2023-01-19T05:17:40.290Z,18.58
2023-01-19T05:20:09.403Z,13.95
2023-01-19T05:22:36.141Z,13.68
2023-01-19T05:25:03.044Z,13.60
2023-01-19T05:27:29.795Z,15.27
2023-01-19T05:29:56.532Z,15.23
2023-01-19T05:32:23.196Z,15.30
2023-01-19T05:34:49.970Z,15.32
2023-01-19T05:37:16.676Z,14.90
2023-01-19T05:39:43.361Z,15.32
2023-01-19T05:42:10.113Z,15.20
2023-01-19T05:44:36.793Z,14.68
2023-01-19T05:47:03.592Z,15.10
2023-01-19T05:49:30.401Z,17.27
2023-01-19T05:51:57.076Z,16.48
2023-01-19T05:54:23.824Z,13.73
2023-01-19T05:56:50.531Z,14.80
2023-01-19T05:59:23.809Z,15.85
2023-01-19T06:01:54.272Z,14.85
2023-01-19T06:04:21.374Z,18.15
2023-01-19T06:06:48.669Z,5.53
2023-01-19T06:09:15.241Z,19.52
2023-01-19T06:11:41.817Z,19.70
2023-01-19T06:14:09.869Z,18.67
2023-01-19T06:16:36.586Z,17.48
2023-01-19T06:19:03.194Z,15.57
2023-01-19T06:21:29.817Z,16.20
2023-01-19T06:23:56.313Z,21.17
2023-01-19T06:26:23.134Z,17.20
2023-01-19T06:28:51.172Z,17.95
2023-01-19T06:31:18.126Z,17.38
2023-01-19T06:33:44.639Z,21.75
2023-01-19T06:36:11.140Z,18.70
2023-01-19T06:38:37.661Z,16.48
2023-01-19T06:41:04.756Z,18.23
2023-01-19T06:43:31.823Z,20.45
2023-01-19T06:46:00.456Z,19.67
2023-01-19T06:48:27.093Z,20.13
2023-01-19T06:50:53.617Z,19.40
2023-01-19T06:53:22.181Z,21.45
2023-01-19T06:55:48.824Z,17.02
2023-01-19T06:58:15.566Z,17.88
2023-01-19T07:00:42.883Z,19.52
2023-01-19T07:03:09.963Z,18.33
2023-01-19T07:05:36.754Z,19.75
2023-01-19T07:08:03.955Z,18.10
2023-01-19T07:11:21.618Z,18.90
2023-01-19T07:13:17.067Z,17.92
2023-01-19T07:15:44.198Z,19.42
2023-01-19T07:18:10.704Z,20.33
2023-01-19T07:20:38.110Z,26.23
2023-01-19T07:23:04.941Z,18.75
2023-01-19T07:25:31.861Z,19.65
2023-01-19T07:27:59.992Z,20.40
2023-01-19T07:30:26.840Z,19.67
2023-01-19T07:32:58.158Z,19.48
2023-01-19T07:35:25.302Z,18.83
2023-01-19T07:37:51.811Z,17.55
2023-01-19T07:40:18.432Z,20.17
2023-01-19T07:42:50.290Z,21.85
2023-01-19T07:45:17.499Z,21.73
2023-01-19T07:47:44.724Z,19.63
2023-01-19T07:50:12.833Z,20.75
2023-01-19T07:52:39.635Z,16.73
2023-01-19T07:55:06.533Z,22.35
2023-01-19T07:57:33.036Z,19.42
2023-01-19T07:59:59.947Z,17.58
2023-01-19T08:02:27.018Z,19.15
2023-01-19T08:04:53.892Z,20.13
2023-01-19T08:07:20.669Z,20.95
2023-01-19T08:09:47.384Z,16.60
2023-01-19T08:12:14.120Z,22.25
2023-01-19T08:14:40.820Z,16.33
2023-01-19T08:17:07.508Z,18.02
2023-01-19T08:19:34.216Z,18.83
2023-01-19T08:22:01.022Z,18.80
2023-01-19T08:24:29.043Z,21.42
2023-01-19T08:27:00.240Z,17.95
2023-01-19T08:29:29.624Z,22.33
2023-01-19T08:31:58.859Z,16.60
2023-01-19T08:34:25.987Z,20.60
2023-01-19T08:36:52.573Z,20.38
2023-01-19T08:39:19.114Z,20.58
2023-01-19T08:41:45.604Z,22.60
2023-01-19T08:44:12.117Z,19.00
2023-01-19T08:46:38.720Z,19.10
2023-01-19T08:49:05.278Z,19.20
2023-01-19T08:51:31.877Z,16.77
2023-01-19T08:53:58.464Z,20.35
2023-01-19T08:56:25.861Z,19.55
2023-01-19T08:59:07.634Z,22.38
2023-01-19T09:01:37.178Z,14.73
2023-01-19T09:04:04.021Z,18.63
2023-01-19T09:06:30.552Z,21.58
2023-01-19T09:08:57.785Z,19.05
2023-01-19T09:11:24.323Z,18.25
2023-01-19T09:13:51.058Z,19.33
2023-01-19T09:16:17.611Z,17.90
2023-01-19T09:18:45.874Z,18.38
2023-01-19T09:21:12.565Z,16.85
2023-01-19T09:23:39.190Z,18.30
2023-01-19T09:26:07.236Z,18.25
2023-01-19T09:28:34.144Z,23.48
2023-01-19T09:31:05.445Z,18.60
2023-01-19T09:33:32.066Z,20.73
2023-01-19T09:35:58.662Z,16.35
2023-01-19T09:38:25.837Z,16.05
2023-01-19T09:40:55.659Z,17.38
2023-01-19T09:43:32.627Z,18.77
2023-01-19T09:46:02.545Z,13.45
2023-01-19T09:48:28.981Z,17.50
2023-01-19T09:51:00.908Z,19.95
2023-01-19T09:53:53.226Z,18.20
2023-01-19T09:56:21.086Z,18.70
2023-01-19T09:58:49.578Z,17.77
2023-01-19T10:01:28.812Z,17.77
2023-01-19T10:04:30.068Z,15.93
2023-01-19T10:07:06.580Z,15.88
2023-01-19T10:09:44.374Z,22.30
2023-01-19T10:12:21.052Z,16.80
2023-01-19T10:15:18.018Z,16.25
2023-01-19T10:18:16.395Z,18.27
2023-01-19T10:20:49.365Z,19.23
2023-01-19T10:23:25.038Z,15.60
2023-01-19T10:25:52.245Z,15.25
2023-01-19T10:28:23.680Z,17.77
2023-01-19T10:30:51.452Z,14.45
2023-01-19T10:33:18.152Z,16.92
2023-01-19T10:35:45.204Z,15.85
2023-01-19T10:38:14.317Z,13.35
2023-01-19T10:40:59.345Z,13.43
2023-01-19T10:43:37.754Z,17.67
2023-01-19T10:46:18.080Z,16.73
2023-01-19T10:48:48.948Z,15.65
2023-01-19T10:51:16.261Z,14.10
2023-01-19T10:53:53.241Z,16.13
2023-01-19T10:56:24.754Z,13.80
2023-01-19T10:58:51.541Z,15.32
2023-01-19T11:01:21.814Z,13.82
2023-01-19T11:03:48.740Z,13.18
2023-01-19T11:06:21.121Z,16.30
2023-01-19T11:08:52.577Z,16.23
2023-01-19T11:11:24.615Z,14.93
2023-01-19T11:14:10.615Z,12.88
2023-01-19T11:16:38.865Z,14.18
2023-01-19T11:19:14.556Z,14.27
2023-01-19T11:21:41.085Z,12.48
2023-01-19T11:24:10.875Z,12.68
2023-01-19T11:26:44.208Z,13.70
2023-01-19T11:29:37.195Z,14.07
2023-01-19T11:32:19.031Z,12.75
2023-01-19T11:34:45.561Z,12.32
2023-01-19T11:37:30.509Z,14.05
2023-01-19T11:39:59.835Z,14.82
2023-01-19T11:42:30.373Z,11.82
2023-01-19T11:45:13.069Z,13.60
2023-01-19T11:47:45.045Z,14.50
2023-01-19T11:50:25.309Z,13.55
2023-01-19T11:52:59.154Z,12.77
2023-01-19T11:55:39.676Z,11.98
2023-01-19T11:58:06.462Z,14.88
2023-01-19T12:00:44.536Z,10.00
2023-01-19T12:03:34.611Z,10.27
2023-01-19T12:06:05.749Z,12.90
2023-01-19T12:08:39.753Z,14.02
2023-01-19T12:11:09.286Z,13.02
2023-01-19T12:13:37.501Z,14.85
2023-01-19T12:16:23.711Z,12.40
2023-01-19T12:19:03.573Z,11.43
2023-01-19T12:21:30.115Z,12.90
2023-01-19T12:24:05.619Z,14.15
2023-01-19T12:26:38.382Z,13.38
2023-01-19T12:29:11.199Z,12.68
2023-01-19T12:31:39.323Z,12.63
2023-01-19T12:34:27.172Z,14.88
2023-01-19T12:36:59.756Z,15.07
2023-01-19T12:39:26.568Z,14.15
2023-01-19T12:42:13.088Z,16.73
2023-01-19T12:44:41.509Z,12.15
2023-01-19T12:47:12.914Z,12.07
2023-01-19T12:49:45.560Z,13.15
2023-01-19T12:52:28.867Z,12.57
2023-01-19T12:55:02.136Z,16.23
2023-01-19T12:57:38.252Z,14.48
2023-01-19T13:00:23.895Z,14.18
2023-01-19T13:02:55.592Z,15.18
2023-01-19T13:05:33.472Z,13.00
2023-01-19T13:08:03.224Z,11.57
2023-01-19T13:11:02.191Z,13.88
2023-01-19T13:13:38.578Z,14.07
2023-01-19T13:16:20.515Z,12.73
2023-01-19T13:18:55.424Z,13.75
2023-01-19T13:21:34.656Z,15.63
2023-01-19T13:24:03.877Z,12.15
2023-01-19T13:26:33.418Z,12.40
2023-01-19T13:29:08.481Z,13.57
2023-01-19T13:31:37.372Z,10.70
2023-01-19T13:34:11.035Z,12.85
2023-01-19T13:36:43.452Z,12.57
2023-01-19T13:39:21.721Z,17.92
2023-01-19T13:41:52.099Z,10.90
2023-01-19T13:44:25.937Z,15.07
2023-01-19T13:46:53.920Z,15.05
2023-01-19T13:49:35.118Z,16.42
2023-01-19T13:52:05.395Z,16.10
2023-01-19T13:54:31.926Z,13.82
2023-01-19T13:56:58.416Z,16.83
2023-01-19T13:59:24.972Z,12.15
2023-01-19T14:01:54.125Z,13.68
2023-01-19T14:04:30.002Z,11.02
2023-01-19T14:07:00.756Z,17.00
2023-01-19T14:09:27.311Z,15.02
2023-01-19T14:12:17.662Z,13.88
2023-01-19T14:14:47.217Z,13.45
2023-01-19T14:17:21.785Z,11.65
2023-01-19T14:19:56.720Z,13.23
2023-01-19T14:22:45.735Z,16.08
2023-01-19T14:25:32.298Z,16.17
2023-01-19T14:28:42.159Z,13.27
2023-01-19T14:31:24.080Z,13.10
2023-01-19T14:33:53.636Z,10.18
2023-01-19T14:36:36.081Z,11.73
2023-01-19T14:39:04.777Z,11.30
2023-01-19T14:41:47.817Z,13.85
2023-01-19T14:44:31.905Z,13.07
2023-01-19T14:46:59.544Z,11.15
2023-01-19T14:49:40.022Z,11.20
2023-01-19T14:52:23.551Z,12.07
2023-01-19T14:54:50.668Z,10.15
2023-01-19T14:57:17.172Z,10.55
2023-01-19T14:59:48.336Z,12.70
2023-01-19T15:02:16.012Z,10.82
2023-01-19T15:04:42.540Z,9.45
2023-01-19T15:07:17.419Z,10.98
2023-01-19T15:10:05.559Z,11.23
2023-01-19T15:12:32.111Z,12.15
2023-01-19T15:14:58.624Z,10.68
2023-01-19T15:17:28.103Z,10.35
2023-01-19T15:19:56.149Z,14.73
2023-01-19T15:22:26.741Z,10.10
2023-01-19T15:24:57.366Z,12.68
2023-01-19T15:27:24.219Z,9.75
2023-01-19T15:29:50.701Z,10.32
2023-01-19T15:32:17.162Z,8.38
2023-01-19T15:34:43.684Z,9.82
2023-01-19T15:37:10.220Z,8.85
2023-01-19T15:39:36.743Z,9.70
2023-01-19T15:42:03.715Z,8.15
2023-01-19T15:44:30.467Z,10.85
2023-01-19T15:46:57.673Z,9.63
2023-01-19T15:49:24.621Z,10.27
2023-01-19T15:51:54.668Z,10.68
2023-01-19T15:54:23.967Z,10.40
2023-01-19T15:56:52.585Z,7.40
2023-01-19T15:59:19.316Z,7.28
2023-01-19T16:01:46.119Z,8.85
2023-01-19T16:04:13.186Z,6.43
2023-01-19T16:06:40.155Z,9.55
2023-01-19T16:09:07.639Z,7.82
2023-01-19T16:11:35.169Z,9.98
2023-01-19T16:14:02.378Z,8.93
2023-01-19T16:16:29.338Z,7.50
2023-01-19T16:18:56.537Z,9.23
2023-01-19T16:21:24.008Z,10.98
2023-01-19T16:23:51.319Z,8.70
2023-01-19T16:26:30.596Z,6.97
2023-01-19T16:28:59.753Z,7.75
2023-01-19T16:31:27.124Z,8.13
2023-01-19T16:33:53.789Z,9.68
2023-01-19T16:36:27.262Z,8.00
2023-01-19T16:38:54.753Z,7.05
2023-01-19T16:41:21.507Z,7.97
2023-01-19T16:43:54.534Z,8.57
2023-01-19T16:46:24.368Z,7.32
2023-01-19T16:48:51.965Z,7.50
2023-01-19T16:51:19.723Z,7.00
2023-01-19T16:53:48.822Z,6.93
2023-01-19T16:56:15.552Z,8.70
2023-01-19T16:58:42.889Z,8.18
2023-01-19T17:01:20.028Z,6.68
2023-01-19T17:03:47.361Z,9.95
2023-01-19T17:06:17.997Z,8.25
2023-01-19T17:08:44.841Z,5.30
2023-01-19T17:11:14.614Z,8.65
2023-01-19T17:13:41.447Z,6.45
2023-01-19T17:16:09.240Z,8.25
2023-01-19T17:18:37.791Z,5.57
2023-01-19T17:21:07.157Z,9.38
2023-01-19T17:23:36.055Z,6.32
2023-01-19T17:26:04.411Z,7.40
2023-01-19T17:28:31.431Z,7.15
2023-01-19T17:31:06.047Z,6.93
2023-01-19T17:33:33.561Z,7.18
2023-01-19T17:36:09.835Z,5.93
2023-01-19T17:38:36.948Z,7.40
2023-01-19T17:41:14.904Z,8.07
2023-01-19T17:43:41.988Z,5.15
2023-01-19T17:46:08.978Z,9.43
2023-01-19T17:48:35.707Z,12.20
2023-01-19T17:51:06.604Z,6.10
2023-01-19T17:53:35.584Z,6.47
2023-01-19T17:56:06.673Z,7.28
2023-01-19T17:58:33.605Z,6.22
2023-01-19T18:01:08.452Z,8.85
2023-01-19T18:03:35.217Z,7.80
2023-01-19T18:06:01.891Z,7.20
2023-01-19T18:08:28.548Z,6.22
2023-01-19T18:10:57.042Z,5.45
2023-01-19T18:13:24.572Z,6.30
2023-01-19T18:15:52.060Z,6.95
2023-01-19T18:18:19.122Z,4.80
2023-01-19T18:20:45.828Z,8.80
2023-01-19T18:23:13.524Z,6.10
2023-01-19T18:25:40.354Z,10.95
2023-01-19T18:28:07.427Z,5.75
2023-01-19T18:30:35.592Z,6.70
2023-01-19T18:33:02.683Z,6.00
2023-01-19T18:35:29.550Z,5.82
2023-01-19T18:37:58.373Z,5.10
2023-01-19T18:40:25.683Z,5.53
2023-01-19T18:42:52.361Z,6.88
2023-01-19T18:45:19.057Z,7.82
2023-01-19T18:47:45.738Z,9.30
2023-01-19T18:50:14.230Z,5.30
2023-01-19T18:52:41.085Z,8.20
2023-01-19T18:55:08.109Z,8.85
2023-01-19T18:57:35.655Z,8.52
2023-01-19T19:00:04.053Z,8.00
2023-01-19T19:02:30.789Z,10.57
2023-01-19T19:04:57.448Z,6.70
2023-01-19T19:07:24.537Z,6.93
2023-01-19T19:09:51.262Z,7.53
2023-01-19T19:12:17.963Z,6.72
2023-01-19T19:14:44.679Z,6.25
2023-01-19T19:17:11.330Z,6.22
2023-01-19T19:19:38.188Z,5.03
2023-01-19T19:22:04.964Z,7.78
2023-01-19T19:24:31.688Z,6.45
2023-01-19T19:26:58.458Z,5.47
2023-01-19T19:29:25.157Z,7.43
2023-01-19T19:31:51.817Z,6.70
2023-01-19T19:34:18.749Z,4.95
2023-01-19T19:36:46.022Z,7.30
2023-01-19T19:39:12.774Z,6.63
2023-01-19T19:41:39.565Z,6.40
2023-01-19T19:44:06.264Z,8.27
2023-01-19T19:46:32.997Z,7.88
2023-01-19T19:48:59.735Z,6.00
2023-01-19T19:51:28.062Z,8.73
2023-01-19T19:53:56.762Z,5.18
2023-01-19T19:56:25.161Z,6.07
2023-01-19T19:58:54.694Z,5.70
2023-01-19T20:01:27.003Z,4.63
2023-01-19T20:03:54.516Z,4.47
2023-01-19T20:06:25.323Z,5.38
2023-01-19T20:08:53.738Z,6.85
2023-01-19T20:11:23.285Z,3.35
2023-01-19T20:13:50.710Z,7.85
2023-01-19T20:16:21.513Z,7.57
2023-01-19T20:18:53.926Z,3.97
2023-01-19T20:21:24.671Z,5.25
2023-01-19T20:23:53.015Z,3.78
2023-01-19T20:26:22.808Z,5.55
2023-01-19T20:28:49.590Z,9.63
2023-01-19T20:31:19.136Z,4.80
2023-01-19T20:33:48.303Z,3.42
2023-01-19T20:36:15.266Z,5.78
2023-01-19T20:38:42.706Z,6.72
2023-01-19T20:41:11.062Z,5.88
2023-01-19T20:43:38.081Z,3.30
2023-01-19T20:46:05.318Z,2.55
2023-01-19T20:48:32.093Z,9.95
2023-01-19T20:51:00.633Z,6.38
2023-01-19T20:53:28.489Z,3.33
2023-01-19T20:55:55.198Z,3.85
2023-01-19T20:58:22.967Z,11.63
2023-01-19T21:00:50.269Z,3.95
2023-01-19T21:03:17.188Z,11.65
2023-01-19T21:05:46.537Z,6.65
2023-01-19T21:08:14.703Z,2.42
2023-01-19T21:10:41.953Z,8.73
2023-01-19T21:13:08.832Z,8.82
2023-01-19T21:15:35.610Z,8.23
2023-01-19T21:18:02.638Z,7.95
2023-01-19T21:20:32.917Z,11.30
2023-01-19T21:22:59.634Z,9.75
2023-01-19T21:25:26.297Z,5.63
2023-01-19T21:27:53.024Z,15.90
2023-01-19T21:30:19.801Z,9.50
2023-01-19T21:32:46.547Z,15.10
2023-01-19T21:35:13.615Z,11.05
2023-01-19T21:37:40.486Z,6.85
2023-01-19T21:40:07.809Z,15.48
2023-01-19T21:42:34.491Z,10.65
2023-01-19T21:45:01.188Z,14.57
2023-01-19T21:47:27.867Z,15.10
2023-01-19T21:49:54.794Z,12.05
2023-01-19T21:52:21.463Z,12.15
2023-01-19T21:54:48.141Z,13.07
2023-01-19T21:57:15.204Z,19.20
2023-01-19T21:59:41.981Z,12.32
2023-01-19T22:02:11.592Z,11.60
2023-01-19T22:04:39.368Z,16.00
2023-01-19T22:07:06.544Z,16.85
2023-01-19T22:09:34.998Z,17.35
2023-01-19T22:12:02.068Z,14.05
2023-01-19T22:14:29.083Z,18.08
2023-01-19T22:16:55.835Z,19.80
2023-01-19T22:19:22.741Z,16.80
2023-01-19T22:21:49.407Z,20.45
2023-01-19T22:24:16.052Z,19.08
2023-01-19T22:26:42.780Z,18.80
2023-01-19T22:29:11.256Z,15.20
2023-01-19T22:31:39.100Z,21.52
2023-01-19T22:34:10.176Z,20.83
2023-01-19T22:36:38.022Z,18.00
2023-01-19T22:39:08.389Z,16.42
2023-01-19T22:41:40.470Z,22.52
2023-01-19T22:44:11.682Z,19.00
2023-01-19T22:46:38.871Z,20.58
2023-01-19T22:49:07.945Z,19.85
2023-01-19T22:51:35.599Z,18.40
2023-01-19T22:54:02.902Z,15.13
2023-01-19T22:56:31.655Z,23.70
2023-01-19T22:58:59.407Z,14.50
2023-01-19T23:01:29.107Z,16.48
2023-01-19T23:03:56.088Z,20.40
2023-01-19T23:06:25.703Z,17.77
2023-01-19T23:08:54.860Z,18.17
2023-01-19T23:11:27.049Z,19.90
2023-01-19T23:13:53.986Z,21.92
2023-01-19T23:16:20.813Z,18.38
2023-01-19T23:18:51.759Z,24.85
2023-01-19T23:21:20.226Z,23.83
2023-01-19T23:23:46.821Z,22.45
2023-01-19T23:26:18.444Z,19.00
2023-01-19T23:28:46.241Z,23.75
2023-01-19T23:31:14.117Z,19.70
2023-01-19T23:33:41.586Z,20.30
2023-01-19T23:36:08.421Z,22.83
2023-01-19T23:38:34.925Z,22.55
2023-01-19T23:41:01.418Z,22.45
2023-01-19T23:43:27.894Z,19.08
2023-01-19T23:45:54.420Z,28.90
2023-01-19T23:48:21.163Z,26.77
2023-01-19T23:50:47.712Z,21.10
2023-01-19T23:53:14.207Z,25.90
2023-01-19T23:55:40.702Z,23.25
2023-01-19T23:58:07.221Z,25.05
